createdAt,value
2023-02-21T00:00:42.752Z,46.15
2023-02-21T00:03:28.415Z,45.79
2023-02-21T00:06:14.043Z,45.51
2023-02-21T00:08:59.776Z,46.62
2023-02-21T00:11:46.107Z,47.49
2023-02-21T00:14:32.032Z,48.16
2023-02-21T00:17:18.003Z,47.80
2023-02-21T00:20:03.918Z,47.14
2023-02-21T00:22:49.671Z,47.14
2023-02-21T00:25:35.391Z,46.53
2023-02-21T00:28:20.948Z,45.69
2023-02-21T00:31:06.604Z,45.95
2023-02-21T00:33:55.318Z,46.24
2023-02-21T00:36:40.746Z,46.28
2023-02-21T00:39:26.357Z,46.11
2023-02-21T00:42:11.965Z,45.97
2023-02-21T00:44:57.705Z,46.03
2023-02-21T00:47:43.404Z,47.16
2023-02-21T00:50:28.921Z,46.80
2023-02-21T00:53:14.398Z,46.96
2023-02-21T00:56:00.044Z,46.93
2023-02-21T00:58:46.066Z,47.60
2023-02-21T01:01:31.833Z,47.51
2023-02-21T01:04:17.899Z,47.06
2023-02-21T01:07:04.914Z,46.56
2023-02-21T01:09:50.809Z,47.50
2023-02-21T01:12:36.575Z,47.84
2023-02-21T01:15:22.800Z,47.79
2023-02-21T01:18:08.380Z,47.87
2023-02-21T01:20:54.442Z,48.18
2023-02-21T01:23:40.034Z,48.70
2023-02-21T01:26:28.137Z,48.76
2023-02-21T01:29:16.804Z,49.26
2023-02-21T01:32:02.629Z,48.38
2023-02-21T01:34:48.391Z,49.18
2023-02-21T01:37:34.231Z,48.04
2023-02-21T01:40:20.469Z,48.20
2023-02-21T01:43:05.792Z,47.86
2023-02-21T01:45:51.466Z,48.23
2023-02-21T01:48:39.147Z,48.12
2023-02-21T01:51:25.273Z,48.12
2023-02-21T01:54:10.685Z,47.95
2023-02-21T01:56:56.238Z,46.93
2023-02-21T01:59:41.680Z,47.08
2023-02-21T02:02:46.250Z,47.55
2023-02-21T02:05:31.867Z,47.64
2023-02-21T02:08:17.372Z,48.14
2023-02-21T02:11:03.038Z,48.07
2023-02-21T02:14:00.879Z,48.03
2023-02-21T02:16:45.423Z,47.55
2023-02-21T02:19:36.757Z,47.44
2023-02-21T02:22:22.067Z,48.15
2023-02-21T02:25:30.492Z,47.92
2023-02-21T02:28:06.558Z,49.02
2023-02-21T02:30:52.981Z,49.15
2023-02-21T02:33:52.732Z,48.52
2023-02-21T02:36:35.451Z,49.46
2023-02-21T02:39:07.981Z,49.09
2023-02-21T02:42:07.789Z,49.11
2023-02-21T02:44:42.030Z,49.78
2023-02-21T02:47:22.612Z,50.66
2023-02-21T02:49:49.709Z,50.25
2023-02-21T02:52:17.054Z,49.47
2023-02-21T02:54:44.083Z,49.16
2023-02-21T02:57:13.053Z,48.70
2023-02-21T02:59:42.516Z,48.05
2023-02-21T03:02:15.623Z,47.66
2023-02-21T03:05:02.091Z,49.66
2023-02-21T03:07:47.807Z,49.64
2023-02-21T03:10:54.477Z,48.96
2023-02-21T03:13:38.540Z,48.50
2023-02-21T03:16:42.725Z,48.78
2023-02-21T03:19:12.522Z,49.53
2023-02-21T03:21:45.621Z,49.17
2023-02-21T03:24:14.077Z,48.55
2023-02-21T03:26:42.662Z,48.07
2023-02-21T03:29:29.887Z,47.69
2023-02-21T03:32:00.525Z,47.54
2023-02-21T03:34:27.576Z,47.45
2023-02-21T03:36:54.557Z,47.68
2023-02-21T03:39:21.632Z,47.42
2023-02-21T03:41:48.772Z,47.23
2023-02-21T03:44:15.956Z,47.86
2023-02-21T03:46:43.065Z,48.49
2023-02-21T03:49:10.147Z,48.15
2023-02-21T03:51:37.156Z,49.36
2023-02-21T03:54:04.241Z,48.48
2023-02-21T03:56:42.153Z,48.10
2023-02-21T03:59:22.615Z,48.00
2023-02-21T04:01:49.892Z,47.95
2023-02-21T04:04:17.846Z,47.92
2023-02-21T04:06:47.208Z,48.22
2023-02-21T04:09:14.198Z,48.65
2023-02-21T04:11:45.335Z,48.68
2023-02-21T04:14:12.804Z,47.95
2023-02-21T04:16:40.524Z,47.86
2023-02-21T04:19:07.571Z,48.92
2023-02-21T04:21:34.886Z,49.06
2023-02-21T04:24:01.892Z,48.61
2023-02-21T04:26:31.537Z,48.10
2023-02-21T04:28:58.916Z,48.16
2023-02-21T04:31:26.240Z,48.79
2023-02-21T04:34:05.789Z,49.47
2023-02-21T04:36:38.622Z,50.03
2023-02-21T04:39:06.089Z,50.00
2023-02-21T04:41:33.313Z,49.48
2023-02-21T04:44:00.419Z,49.05
2023-02-21T04:46:31.655Z,49.35
2023-02-21T04:48:58.596Z,49.34
2023-02-21T04:51:25.896Z,49.54
2023-02-21T04:53:53.526Z,50.00
2023-02-21T04:56:21.780Z,49.62
2023-02-21T04:58:48.738Z,49.26
2023-02-21T05:01:16.566Z,49.01
2023-02-21T05:03:43.989Z,49.35
2023-02-21T05:06:11.122Z,49.19
2023-02-21T05:08:38.302Z,49.84
2023-02-21T05:11:05.452Z,49.49
2023-02-21T05:13:32.551Z,49.52
2023-02-21T05:15:59.603Z,49.11
2023-02-21T05:18:28.848Z,49.61
2023-02-21T05:20:56.198Z,49.69
2023-02-21T05:23:34.054Z,49.87
2023-02-21T05:26:11.702Z,49.92
2023-02-21T05:28:38.599Z,49.43
2023-02-21T05:31:05.864Z,49.73
2023-02-21T05:33:33.184Z,49.52
2023-02-21T05:36:00.228Z,50.03
2023-02-21T05:38:27.332Z,49.78
2023-02-21T05:40:54.607Z,49.55
2023-02-21T05:43:21.570Z,49.19
2023-02-21T05:45:48.612Z,49.10
2023-02-21T05:48:15.825Z,49.15
2023-02-21T05:50:42.910Z,48.73
2023-02-21T05:53:10.555Z,48.16
2023-02-21T05:55:37.949Z,48.97
2023-02-21T05:58:05.097Z,48.59
2023-02-21T06:00:32.288Z,48.62
2023-02-21T06:02:59.932Z,48.41
2023-02-21T06:05:26.880Z,48.58
2023-02-21T06:07:54.013Z,50.50
2023-02-21T06:10:21.111Z,51.30
2023-02-21T06:12:48.155Z,51.49
2023-02-21T06:15:15.575Z,51.40
2023-02-21T06:17:42.785Z,51.44
2023-02-21T06:20:14.901Z,51.04
2023-02-21T06:22:41.822Z,51.06
2023-02-21T06:25:08.920Z,50.89
2023-02-21T06:27:36.143Z,50.58
2023-02-21T06:30:04.167Z,50.22
2023-02-21T06:32:31.286Z,50.70
2023-02-21T06:34:58.319Z,50.17
2023-02-21T06:37:25.258Z,50.22
2023-02-21T06:39:52.524Z,51.80
2023-02-21T06:42:19.657Z,51.87
2023-02-21T06:44:47.159Z,50.88
2023-02-21T06:47:14.451Z,50.40
2023-02-21T06:49:41.515Z,50.49
2023-02-21T06:52:08.843Z,50.43
2023-02-21T06:54:35.839Z,50.21
2023-02-21T06:57:02.929Z,50.34
2023-02-21T06:59:29.977Z,52.27
2023-02-21T07:01:57.131Z,52.63
2023-02-21T07:04:24.618Z,52.81
2023-02-21T07:06:51.800Z,54.20
2023-02-21T07:09:18.848Z,53.46
2023-02-21T07:11:47.235Z,52.56
2023-02-21T07:14:14.312Z,51.46
2023-02-21T07:16:41.351Z,52.71
2023-02-21T07:19:08.338Z,53.54
2023-02-21T07:21:35.378Z,52.48
2023-02-21T07:24:02.382Z,52.39
2023-02-21T07:26:29.347Z,51.88
2023-02-21T07:28:56.510Z,51.17
2023-02-21T07:31:23.752Z,50.90
2023-02-21T07:33:50.865Z,50.08
2023-02-21T07:36:17.881Z,49.63
2023-02-21T07:38:44.869Z,48.80
2023-02-21T07:41:11.848Z,48.89
2023-02-21T07:43:39.392Z,48.27
2023-02-21T07:46:12.864Z,48.91
2023-02-21T07:48:39.902Z,48.12
2023-02-21T07:51:07.885Z,47.39
2023-02-21T07:53:34.874Z,47.31
2023-02-21T07:56:01.938Z,47.15
2023-02-21T07:58:28.877Z,46.73
2023-02-21T08:00:55.849Z,46.25
2023-02-21T08:03:23.297Z,47.75
2023-02-21T08:05:50.367Z,47.65
2023-02-21T08:08:17.544Z,47.50
2023-02-21T08:10:44.514Z,48.42
2023-02-21T08:13:11.551Z,46.91
2023-02-21T08:15:38.537Z,47.72
2023-02-21T08:18:05.632Z,47.06
2023-02-21T08:20:32.736Z,46.54
2023-02-21T08:22:59.885Z,45.26
2023-02-21T08:25:26.865Z,45.75
2023-02-21T08:27:55.435Z,45.13
2023-02-21T08:30:22.827Z,46.40
2023-02-21T08:32:51.505Z,46.25
2023-02-21T08:35:19.600Z,45.77
2023-02-21T08:37:47.125Z,46.33
2023-02-21T08:40:14.495Z,44.24
2023-02-21T08:42:41.912Z,44.00
2023-02-21T08:45:10.891Z,44.38
2023-02-21T08:47:37.934Z,46.12
2023-02-21T08:50:05.325Z,46.60
2023-02-21T08:52:32.170Z,45.30
2023-02-21T08:54:59.185Z,45.97
2023-02-21T08:57:31.113Z,44.51
2023-02-21T08:59:59.497Z,43.27
2023-02-21T09:02:26.766Z,42.04
2023-02-21T09:04:53.812Z,42.91
2023-02-21T09:07:22.758Z,42.53
2023-02-21T09:09:49.772Z,44.51
2023-02-21T09:12:16.871Z,43.11
2023-02-21T09:14:44.288Z,43.65
2023-02-21T09:17:13.126Z,42.77
2023-02-21T09:19:40.530Z,42.01
2023-02-21T09:22:08.883Z,42.67
2023-02-21T09:24:35.983Z,44.96
2023-02-21T09:27:05.721Z,44.17
2023-02-21T09:29:44.902Z,44.03
2023-02-21T09:32:13.343Z,43.77
2023-02-21T09:34:40.270Z,43.60
2023-02-21T09:37:07.310Z,42.32
2023-02-21T09:39:34.429Z,41.08
2023-02-21T09:42:01.327Z,42.20
2023-02-21T09:44:28.901Z,42.77
2023-02-21T09:47:01.755Z,41.60
2023-02-21T09:49:30.049Z,40.85
2023-02-21T09:51:57.097Z,41.61
2023-02-21T09:54:39.406Z,42.00
2023-02-21T09:57:11.763Z,40.17
2023-02-21T09:59:38.764Z,40.81
2023-02-21T10:02:14.904Z,39.46
2023-02-21T10:04:53.927Z,39.10
2023-02-21T10:07:32.307Z,41.90
2023-02-21T10:10:09.759Z,41.99
2023-02-21T10:13:14.161Z,41.76
2023-02-21T10:15:52.562Z,41.79
2023-02-21T10:18:25.529Z,40.41
2023-02-21T10:20:58.086Z,40.33
2023-02-21T10:23:38.024Z,39.79
2023-02-21T10:26:09.698Z,40.39
2023-02-21T10:28:37.170Z,41.61
2023-02-21T10:31:37.257Z,42.75
2023-02-21T10:34:05.240Z,41.08
2023-02-21T10:36:32.343Z,40.93
2023-02-21T10:39:15.646Z,40.08
2023-02-21T10:41:42.767Z,39.93
2023-02-21T10:44:27.145Z,40.71
2023-02-21T10:47:15.960Z,40.04
2023-02-21T10:50:02.938Z,40.17
2023-02-21T10:52:29.906Z,39.73
2023-02-21T10:55:01.255Z,39.68
2023-02-21T10:57:28.835Z,40.20
2023-02-21T10:59:56.177Z,42.13
2023-02-21T11:02:34.311Z,40.24
2023-02-21T11:05:18.350Z,41.90
2023-02-21T11:07:57.556Z,41.31
2023-02-21T11:10:42.422Z,40.78
2023-02-21T11:13:17.998Z,39.42
2023-02-21T11:15:45.290Z,39.66
2023-02-21T11:18:17.860Z,38.60
2023-02-21T11:20:45.293Z,38.79
2023-02-21T11:23:19.816Z,38.63
2023-02-21T11:25:46.977Z,37.93
2023-02-21T11:28:13.798Z,37.85
2023-02-21T11:30:44.608Z,38.56
2023-02-21T11:33:11.949Z,38.29
2023-02-21T11:35:47.334Z,37.25
2023-02-21T11:38:35.925Z,36.09
2023-02-21T11:41:04.373Z,35.97
2023-02-21T11:43:32.274Z,37.72
2023-02-21T11:46:16.386Z,37.26
2023-02-21T11:49:12.835Z,37.10
2023-02-21T11:51:59.284Z,37.04
2023-02-21T11:54:27.565Z,36.05
2023-02-21T11:57:07.007Z,36.77
2023-02-21T11:59:42.725Z,37.76
2023-02-21T12:02:19.711Z,35.85
2023-02-21T12:05:08.456Z,38.10
2023-02-21T12:07:53.948Z,38.70
2023-02-21T12:10:58.424Z,37.96
2023-02-21T12:13:28.232Z,37.86
2023-02-21T12:16:04.537Z,38.02
2023-02-21T12:18:38.646Z,38.07
2023-02-21T12:21:12.986Z,37.77
2023-02-21T12:23:50.229Z,37.72
2023-02-21T12:26:35.071Z,36.83
2023-02-21T12:29:34.927Z,37.54
2023-02-21T12:32:23.506Z,40.68
2023-02-21T12:34:59.610Z,38.50
2023-02-21T12:37:30.057Z,37.60
2023-02-21T12:40:05.223Z,38.33
2023-02-21T12:42:50.831Z,38.97
2023-02-21T12:45:40.320Z,39.02
2023-02-21T12:48:16.839Z,39.14
2023-02-21T12:50:45.464Z,38.40
2023-02-21T12:53:16.432Z,39.59
2023-02-21T12:55:45.995Z,39.16
2023-02-21T12:58:21.162Z,38.54
2023-02-21T13:00:55.351Z,38.55
2023-02-21T13:03:44.114Z,38.96
2023-02-21T13:06:39.386Z,38.26
2023-02-21T13:09:06.230Z,38.99
2023-02-21T13:11:42.854Z,38.61
2023-02-21T13:14:12.108Z,36.89
2023-02-21T13:16:39.463Z,36.90
2023-02-21T13:19:10.279Z,36.77
2023-02-21T13:21:40.231Z,39.88
2023-02-21T13:24:31.341Z,39.13
2023-02-21T13:27:37.677Z,38.50
2023-02-21T13:30:22.812Z,36.95
2023-02-21T13:32:52.283Z,36.99
2023-02-21T13:35:21.930Z,37.53
2023-02-21T13:37:50.043Z,37.72
2023-02-21T13:40:24.635Z,37.30
2023-02-21T13:43:07.245Z,37.59
2023-02-21T13:45:34.793Z,37.88
2023-02-21T13:48:01.708Z,38.40
2023-02-21T13:50:37.591Z,37.56
2023-02-21T13:53:13.255Z,37.36
2023-02-21T13:55:40.447Z,37.13
2023-02-21T13:58:27.760Z,37.47
2023-02-21T14:00:55.154Z,37.22
2023-02-21T14:03:22.307Z,38.35
2023-02-21T14:05:52.435Z,37.96
2023-02-21T14:08:34.622Z,37.98
2023-02-21T14:11:04.725Z,36.86
2023-02-21T14:13:47.830Z,36.85
2023-02-21T14:16:15.438Z,37.16
2023-02-21T14:18:45.928Z,38.28
2023-02-21T14:21:22.833Z,38.36
2023-02-21T14:23:51.495Z,37.07
2023-02-21T14:26:37.452Z,39.37
2023-02-21T14:29:07.580Z,39.90
2023-02-21T14:31:58.512Z,37.62
2023-02-21T14:34:47.123Z,36.65
2023-02-21T14:37:22.433Z,38.15
2023-02-21T14:39:51.850Z,36.96
2023-02-21T14:42:42.069Z,36.29
2023-02-21T14:45:12.288Z,35.68
2023-02-21T14:47:57.809Z,34.76
2023-02-21T14:50:47.696Z,34.77
2023-02-21T14:53:29.457Z,34.71
2023-02-21T14:56:25.308Z,34.82
2023-02-21T14:59:06.406Z,34.25
2023-02-21T15:01:46.118Z,34.35
2023-02-21T15:04:32.700Z,35.53
2023-02-21T15:07:21.886Z,35.02
2023-02-21T15:10:23.972Z,35.11
2023-02-21T15:12:57.969Z,35.46
2023-02-21T15:15:29.762Z,36.33
2023-02-21T15:17:59.509Z,37.27
2023-02-21T15:20:26.514Z,37.24
2023-02-21T15:22:58.229Z,36.65
2023-02-21T15:25:25.803Z,36.02
2023-02-21T15:27:54.971Z,35.63
2023-02-21T15:30:32.491Z,35.42
2023-02-21T15:33:19.281Z,35.18
2023-02-21T15:35:53.094Z,35.25
2023-02-21T15:38:35.633Z,35.96
2023-02-21T15:41:07.630Z,35.91
2023-02-21T15:43:39.725Z,36.31
2023-02-21T15:46:07.680Z,37.03
2023-02-21T15:48:35.057Z,37.58
2023-02-21T15:51:04.013Z,38.79
2023-02-21T15:53:32.433Z,38.32
2023-02-21T15:56:21.149Z,38.51
2023-02-21T15:59:22.995Z,38.44
2023-02-21T16:02:11.511Z,39.40
2023-02-21T16:04:40.183Z,38.93
2023-02-21T16:07:08.780Z,39.58
2023-02-21T16:09:35.989Z,39.63
2023-02-21T16:12:11.914Z,39.59
2023-02-21T16:14:46.887Z,40.41
2023-02-21T16:17:13.872Z,40.74
2023-02-21T16:19:52.384Z,41.29
2023-02-21T16:22:54.111Z,41.33
2023-02-21T16:25:24.975Z,41.28
2023-02-21T16:27:53.678Z,41.86
2023-02-21T16:30:28.787Z,41.24
2023-02-21T16:33:00.378Z,41.58
2023-02-21T16:35:27.360Z,40.87
2023-02-21T16:37:58.518Z,40.89
2023-02-21T16:40:35.720Z,40.93
2023-02-21T16:43:02.951Z,41.12
2023-02-21T16:45:30.517Z,41.02
2023-02-21T16:48:05.256Z,40.93
2023-02-21T16:50:39.407Z,41.20
2023-02-21T16:53:06.738Z,41.18
2023-02-21T16:55:33.806Z,41.20
2023-02-21T16:58:07.776Z,41.22
2023-02-21T17:00:34.960Z,41.47
2023-02-21T17:03:02.119Z,41.91
2023-02-21T17:05:29.402Z,42.05
2023-02-21T17:07:57.586Z,42.08
2023-02-21T17:10:24.631Z,42.28
2023-02-21T17:12:51.677Z,41.71
2023-02-21T17:15:18.727Z,41.46
2023-02-21T17:17:52.784Z,41.65
2023-02-21T17:20:20.727Z,41.84
2023-02-21T17:22:48.497Z,42.13
2023-02-21T17:25:15.771Z,42.23
2023-02-21T17:27:43.034Z,42.72
2023-02-21T17:30:10.636Z,43.17
2023-02-21T17:32:38.346Z,43.03
2023-02-21T17:35:05.590Z,43.08
2023-02-21T17:37:32.552Z,42.64
2023-02-21T17:39:59.490Z,42.77
2023-02-21T17:42:26.567Z,43.46
2023-02-21T17:44:53.663Z,44.65
2023-02-21T17:47:21.889Z,44.83
2023-02-21T17:49:49.513Z,44.71
2023-02-21T17:52:16.848Z,44.38
2023-02-21T17:54:43.898Z,44.48
2023-02-21T17:57:11.156Z,44.61
2023-02-21T17:59:38.328Z,44.31
2023-02-21T18:02:05.939Z,44.21
2023-02-21T18:04:33.135Z,44.12
2023-02-21T18:07:00.164Z,44.14
2023-02-21T18:09:27.130Z,44.85
2023-02-21T18:11:54.932Z,45.09
2023-02-21T18:14:22.525Z,45.06
2023-02-21T18:16:49.743Z,44.76
2023-02-21T18:19:16.868Z,44.46
2023-02-21T18:21:45.676Z,44.34
2023-02-21T18:24:13.573Z,44.57
2023-02-21T18:26:40.705Z,44.54
2023-02-21T18:29:08.199Z,44.65
2023-02-21T18:31:35.553Z,45.03
2023-02-21T18:34:03.395Z,44.77
2023-02-21T18:36:30.648Z,45.07
2023-02-21T18:38:57.687Z,44.91
2023-02-21T18:41:24.735Z,45.53
2023-02-21T18:43:51.716Z,44.79
2023-02-21T18:46:19.914Z,44.50
2023-02-21T18:48:48.519Z,44.60
2023-02-21T18:51:16.871Z,44.30
2023-02-21T18:53:45.504Z,44.36
2023-02-21T18:56:14.222Z,46.28
2023-02-21T18:58:41.357Z,46.27
2023-02-21T19:01:10.200Z,46.00
2023-02-21T19:03:38.940Z,45.65
2023-02-21T19:06:07.956Z,46.46
2023-02-21T19:08:34.977Z,46.95
2023-02-21T19:11:02.025Z,47.24
2023-02-21T19:13:29.170Z,46.94
2023-02-21T19:15:56.273Z,46.64
2023-02-21T19:18:23.398Z,46.47
2023-02-21T19:20:50.601Z,46.02
2023-02-21T19:23:17.981Z,45.91
2023-02-21T19:25:45.179Z,46.62
2023-02-21T19:28:12.248Z,46.24
2023-02-21T19:30:39.330Z,46.22
2023-02-21T19:33:07.125Z,45.42
2023-02-21T19:35:34.734Z,45.75
2023-02-21T19:38:05.964Z,45.64
2023-02-21T19:40:33.168Z,46.31
2023-02-21T19:43:00.320Z,47.34
2023-02-21T19:45:28.637Z,47.46
2023-02-21T19:47:55.717Z,46.76
2023-02-21T19:50:22.712Z,46.33
2023-02-21T19:52:54.964Z,45.79
2023-02-21T19:55:22.450Z,46.56
2023-02-21T19:57:49.452Z,45.95
2023-02-21T20:00:16.913Z,46.43
2023-02-21T20:02:46.713Z,46.81
2023-02-21T20:05:14.305Z,47.03
2023-02-21T20:07:41.453Z,46.75
2023-02-21T20:10:09.241Z,46.72
2023-02-21T20:12:36.279Z,47.48
2023-02-21T20:15:04.074Z,47.81
2023-02-21T20:17:31.622Z,48.10
2023-02-21T20:19:58.713Z,48.57
2023-02-21T20:22:31.276Z,48.15
2023-02-21T20:24:58.746Z,48.34
2023-02-21T20:27:25.762Z,48.67
2023-02-21T20:29:52.755Z,48.33
2023-02-21T20:32:19.793Z,47.86
2023-02-21T20:34:46.783Z,47.25
2023-02-21T20:37:15.530Z,47.88
2023-02-21T20:39:42.575Z,46.86
2023-02-21T20:42:09.646Z,47.02
2023-02-21T20:44:41.415Z,47.55
2023-02-21T20:47:10.094Z,47.82
2023-02-21T20:49:37.576Z,46.58
2023-02-21T20:52:04.668Z,46.95
2023-02-21T20:54:31.669Z,47.41
2023-02-21T20:56:58.733Z,47.89
2023-02-21T20:59:27.566Z,48.30
2023-02-21T21:01:54.628Z,48.38
2023-02-21T21:04:27.030Z,49.02
2023-02-21T21:06:59.955Z,49.05
2023-02-21T21:09:34.425Z,48.88
2023-02-21T21:12:02.686Z,49.42
2023-02-21T21:14:35.617Z,48.83
2023-02-21T21:17:03.328Z,48.66
2023-02-21T21:19:37.044Z,48.48
2023-02-21T21:22:05.843Z,48.58
2023-02-21T21:24:32.937Z,48.64
2023-02-21T21:27:06.404Z,48.79
2023-02-21T21:29:36.695Z,49.65
2023-02-21T21:32:05.665Z,49.14
2023-02-21T21:34:33.513Z,49.77
2023-02-21T21:37:01.907Z,49.58
2023-02-21T21:39:29.058Z,49.00
2023-02-21T21:41:58.826Z,48.64
2023-02-21T21:44:26.678Z,47.97
2023-02-21T21:46:53.917Z,49.08
2023-02-21T21:49:22.262Z,49.34
2023-02-21T21:51:49.545Z,48.49
2023-02-21T21:54:20.699Z,48.56
2023-02-21T21:56:47.778Z,48.57
2023-02-21T21:59:18.873Z,49.35
2023-02-21T22:01:49.946Z,48.80
2023-02-21T22:04:17.243Z,48.84
2023-02-21T22:06:47.045Z,50.22
2023-02-21T22:09:17.368Z,49.83
2023-02-21T22:11:45.647Z,49.18
2023-02-21T22:14:13.387Z,49.04
2023-02-21T22:16:41.580Z,49.22
2023-02-21T22:19:08.660Z,49.46
2023-02-21T22:21:36.234Z,49.53
2023-02-21T22:24:04.017Z,49.77
2023-02-21T22:26:31.259Z,48.67
2023-02-21T22:28:58.293Z,48.61
2023-02-21T22:31:26.114Z,48.83
2023-02-21T22:33:54.072Z,47.42
2023-02-21T22:36:21.123Z,48.17
2023-02-21T22:38:48.743Z,48.18
2023-02-21T22:41:20.894Z,48.81
2023-02-21T22:43:50.648Z,48.60
2023-02-21T22:46:18.222Z,49.23
2023-02-21T22:48:45.322Z,49.06
2023-02-21T22:51:12.993Z,48.61
2023-02-21T22:53:41.668Z,48.10
2023-02-21T22:56:10.239Z,48.39
2023-02-21T22:58:37.362Z,48.45
2023-02-21T23:01:08.116Z,48.79
2023-02-21T23:03:35.661Z,48.98
2023-02-21T23:06:02.669Z,48.74
2023-02-21T23:08:29.749Z,48.74
2023-02-21T23:10:56.739Z,49.41
2023-02-21T23:13:24.285Z,49.37
2023-02-21T23:15:51.562Z,49.41
2023-02-21T23:18:21.785Z,48.83
2023-02-21T23:20:56.119Z,49.59
2023-02-21T23:23:27.483Z,49.77
2023-02-21T23:25:56.561Z,49.04
2023-02-21T23:28:23.604Z,49.42
2023-02-21T23:30:50.687Z,49.14
2023-02-21T23:33:23.043Z,49.16
2023-02-21T23:35:51.168Z,49.47
2023-02-21T23:38:22.182Z,49.79
2023-02-21T23:40:56.345Z,49.44
2023-02-21T23:43:25.316Z,48.68
2023-02-21T23:45:52.903Z,48.69
2023-02-21T23:48:19.916Z,47.92
2023-02-21T23:50:47.335Z,49.66
2023-02-21T23:53:19.155Z,50.51
2023-02-21T23:55:46.725Z,49.89
2023-02-21T23:58:15.609Z,49.69
